createdAt,value
2023-05-16T00:01:55.678Z,99648.48
2023-05-16T00:04:29.961Z,99641.50
2023-05-16T00:07:03.546Z,99644.12
2023-05-16T00:09:37.341Z,99649.37
2023-05-16T00:12:11.643Z,99650.23
2023-05-16T00:14:45.369Z,99646.75
2023-05-16T00:17:20.552Z,99637.98
2023-05-16T00:19:55.778Z,99639.72
2023-05-16T00:22:30.912Z,99638.86
2023-05-16T00:25:04.654Z,99639.72
2023-05-16T00:27:38.458Z,99639.73
2023-05-16T00:30:13.738Z,99634.48
2023-05-16T00:32:47.338Z,99638.84
2023-05-16T00:35:20.988Z,99630.97
2023-05-16T00:37:56.005Z,99632.70
2023-05-16T00:40:29.639Z,99625.72
2023-05-16T00:43:03.123Z,99635.34
2023-05-16T00:45:36.644Z,99631.86
2023-05-16T00:48:10.320Z,99630.09
2023-05-16T00:50:44.038Z,99631.86
2023-05-16T00:53:17.770Z,99632.72
2023-05-16T00:55:51.621Z,99624.86
2023-05-16T00:58:26.099Z,99622.20
2023-05-16T01:00:59.762Z,99626.59
2023-05-16T01:03:33.930Z,99624.84
2023-05-16T01:06:08.610Z,99617.81
2023-05-16T01:08:42.117Z,99616.95
2023-05-16T01:11:20.090Z,99617.82
2023-05-16T01:13:59.196Z,99629.15
2023-05-16T01:16:37.932Z,99634.30
2023-05-16T01:19:17.801Z,99630.75
2023-05-16T01:21:57.940Z,99623.66
2023-05-16T01:24:34.535Z,99631.47
2023-05-16T01:27:09.729Z,99627.00
2023-05-16T01:29:43.160Z,99633.05
2023-05-16T01:32:17.458Z,99633.84
2023-05-16T01:34:52.203Z,99639.88
2023-05-16T01:37:30.701Z,99631.09
2023-05-16T01:40:08.256Z,99629.28
2023-05-16T01:42:44.897Z,99628.30
2023-05-16T01:45:22.216Z,99636.92
2023-05-16T01:47:59.157Z,99641.23
2023-05-16T01:50:35.854Z,99639.44
2023-05-16T01:53:12.621Z,99641.13
2023-05-16T01:55:48.866Z,99642.81
2023-05-16T01:58:26.864Z,99636.66
2023-05-16T02:01:06.108Z,99634.03
2023-05-16T02:03:41.738Z,99635.77
2023-05-16T02:06:16.855Z,99640.03
2023-05-16T02:08:53.390Z,99625.86
2023-05-16T02:11:29.865Z,99632.75
2023-05-16T02:14:04.486Z,99639.64
2023-05-16T02:16:42.151Z,99635.28
2023-05-16T02:19:16.098Z,99632.69
2023-05-16T02:21:50.360Z,99642.28
2023-05-16T02:24:24.090Z,99637.95
2023-05-16T02:26:57.793Z,99646.63
2023-05-16T02:29:31.547Z,99642.26
2023-05-16T02:32:05.429Z,99644.88
2023-05-16T02:34:38.954Z,99650.86
2023-05-16T02:37:13.617Z,99652.50
2023-05-16T02:39:47.133Z,99647.19
2023-05-16T02:42:21.803Z,99652.46
2023-05-16T02:44:55.606Z,99651.63
2023-05-16T02:47:31.147Z,99651.53
2023-05-16T02:50:05.916Z,99650.69
2023-05-16T02:52:40.159Z,99652.46
2023-05-16T02:55:21.591Z,99650.02
2023-05-16T02:57:50.860Z,99651.97
2023-05-16T03:00:25.542Z,99655.56
2023-05-16T03:02:59.029Z,99650.52
2023-05-16T03:05:32.706Z,99649.75
2023-05-16T03:08:06.955Z,99644.61
2023-05-16T03:10:40.113Z,99647.30
2023-05-16T03:13:13.577Z,99637.77
2023-05-16T03:15:47.390Z,99638.74
2023-05-16T03:18:21.260Z,99634.44
2023-05-16T03:20:55.095Z,99639.75
2023-05-16T03:23:29.999Z,99641.58
2023-05-16T03:26:03.287Z,99639.02
2023-05-16T03:28:36.561Z,99648.69
2023-05-16T03:31:10.037Z,99654.84
2023-05-16T03:33:46.788Z,99654.91
2023-05-16T03:36:24.749Z,99651.52
2023-05-16T03:38:59.275Z,99665.58
2023-05-16T03:41:32.541Z,99651.66
2023-05-16T03:44:13.318Z,99658.71
2023-05-16T03:46:49.263Z,99652.65
2023-05-16T03:49:27.407Z,99659.72
2023-05-16T03:52:03.310Z,99653.61
2023-05-16T03:54:46.772Z,99660.64
2023-05-16T03:57:20.582Z,99651.92
2023-05-16T03:59:53.822Z,99660.71
2023-05-16T04:02:27.087Z,99656.34
2023-05-16T04:05:00.392Z,99659.02
2023-05-16T04:07:34.107Z,99658.16
2023-05-16T04:12:51.319Z,99649.44
2023-05-16T04:15:24.567Z,99656.44
2023-05-16T04:17:58.100Z,99654.67
2023-05-16T04:20:32.955Z,99655.55
2023-05-16T04:23:06.638Z,99653.78
2023-05-16T04:25:40.060Z,99655.52
2023-05-16T04:28:13.631Z,99666.91
2023-05-16T04:30:47.890Z,99666.86
2023-05-16T04:33:21.540Z,99675.60
2023-05-16T04:35:55.152Z,99664.23
2023-05-16T04:38:28.456Z,99676.43
2023-05-16T04:41:03.937Z,99673.80
2023-05-16T04:43:38.096Z,99667.68
2023-05-16T04:46:11.894Z,99664.13
2023-05-16T04:48:46.180Z,99671.13
2023-05-16T04:51:22.386Z,99675.50
2023-05-16T04:53:56.696Z,99671.96
2023-05-16T04:56:30.094Z,99679.84
2023-05-16T04:59:04.325Z,99682.44
2023-05-16T05:01:37.577Z,99682.46
2023-05-16T05:04:10.979Z,99681.55
2023-05-16T05:06:44.438Z,99685.89
2023-05-16T05:09:18.033Z,99679.69
2023-05-16T05:11:51.606Z,99692.83
2023-05-16T05:14:25.014Z,99683.14
2023-05-16T05:16:58.484Z,99690.11
2023-05-16T05:19:31.987Z,99691.81
2023-05-16T05:22:05.186Z,99690.02
2023-05-16T05:24:38.605Z,99695.26
2023-05-16T05:27:12.036Z,99685.56
2023-05-16T05:29:45.515Z,99696.01
2023-05-16T05:32:18.914Z,99698.58
2023-05-16T05:34:52.728Z,99692.39
2023-05-16T05:37:26.388Z,99698.50
2023-05-16T05:40:00.198Z,99698.41
2023-05-16T05:42:35.430Z,99706.18
2023-05-16T05:45:10.855Z,99705.25
2023-05-16T05:47:44.916Z,99706.92
2023-05-16T05:50:18.366Z,99717.40
2023-05-16T05:52:51.600Z,99698.02
2023-05-16T05:55:25.543Z,99706.76
2023-05-16T05:57:59.325Z,99697.02
2023-05-16T06:00:33.030Z,99703.94
2023-05-16T06:03:10.278Z,99703.83
2023-05-16T06:05:44.054Z,99715.22
2023-05-16T06:08:17.869Z,99698.36
2023-05-16T06:10:51.166Z,99702.78
2023-05-16T06:13:24.595Z,99722.14
2023-05-16T06:15:58.147Z,99720.37
2023-05-16T06:18:31.708Z,99721.20
2023-05-16T06:21:06.095Z,99719.48
2023-05-16T06:23:40.103Z,99724.70
2023-05-16T06:26:13.649Z,99727.33
2023-05-16T06:28:47.308Z,99726.34
2023-05-16T06:31:20.582Z,99726.33
2023-05-16T06:33:54.093Z,99719.20
2023-05-16T06:36:27.566Z,99726.97
2023-05-16T06:39:01.097Z,99721.52
2023-05-16T06:41:34.584Z,99719.69
2023-05-16T06:44:08.974Z,99702.89
2023-05-16T06:46:42.581Z,99698.62
2023-05-16T06:49:16.416Z,99705.79
2023-05-16T06:51:49.968Z,99716.12
2023-05-16T06:54:23.341Z,99724.28
2023-05-16T06:56:56.745Z,99720.91
2023-05-16T06:59:30.177Z,99707.38
2023-05-16T07:02:03.636Z,99717.39
2023-05-16T07:04:38.173Z,99704.04
2023-05-16T07:07:11.874Z,99693.48
2023-05-16T07:09:45.451Z,99698.17
2023-05-16T07:12:18.905Z,99698.84
2023-05-16T07:14:52.351Z,99686.42
2023-05-16T07:17:25.824Z,99699.91
2023-05-16T07:19:59.430Z,99699.23
2023-05-16T07:22:33.075Z,99696.61
2023-05-16T07:25:09.388Z,99695.49
2023-05-16T07:27:45.432Z,99700.36
2023-05-16T07:30:18.824Z,99692.59
2023-05-16T07:32:52.425Z,99697.02
2023-05-16T07:35:26.611Z,99696.36
2023-05-16T07:38:00.433Z,99699.48
2023-05-16T07:40:34.037Z,99697.40
2023-05-16T07:43:07.686Z,99695.80
2023-05-16T07:45:41.520Z,99695.27
2023-05-16T07:48:15.067Z,99689.97
2023-05-16T07:50:48.774Z,99674.54
2023-05-16T07:53:22.781Z,99696.05
2023-05-16T07:55:56.710Z,99691.75
2023-05-16T07:58:30.585Z,99689.36
2023-05-16T08:01:04.465Z,99694.75
2023-05-16T08:03:38.610Z,99692.68
2023-05-16T08:06:13.000Z,99675.96
2023-05-16T08:08:46.858Z,99684.38
2023-05-16T08:11:22.041Z,99693.71
2023-05-16T08:13:55.901Z,99689.43
2023-05-16T08:16:29.454Z,99676.25
2023-05-16T08:19:03.156Z,99678.03
2023-05-16T08:21:37.212Z,99689.27
2023-05-16T08:24:11.465Z,99685.71
2023-05-16T08:26:45.322Z,99692.17
2023-05-16T08:29:18.753Z,99670.23
2023-05-16T08:31:52.410Z,99675.00
2023-05-16T08:34:25.976Z,99674.75
2023-05-16T08:36:59.726Z,99674.31
2023-05-16T08:39:33.507Z,99668.08
2023-05-16T08:42:08.170Z,99668.69
2023-05-16T08:44:42.053Z,99680.14
2023-05-16T08:47:18.400Z,99683.17
2023-05-16T08:49:53.965Z,99673.23
2023-05-16T08:52:32.156Z,99659.95
2023-05-16T08:55:11.345Z,99652.21
2023-05-16T08:57:46.587Z,99640.25
2023-05-16T09:00:22.624Z,99681.49
2023-05-16T09:02:56.764Z,99693.35
2023-05-16T09:05:31.509Z,99677.98
2023-05-16T09:08:04.803Z,99671.96
2023-05-16T09:10:38.231Z,99659.05
2023-05-16T09:13:11.810Z,99670.50
2023-05-16T09:15:45.799Z,99662.66
2023-05-16T09:18:19.326Z,99647.73
2023-05-16T09:20:53.526Z,99666.89
2023-05-16T09:23:28.286Z,99669.98
2023-05-16T09:26:01.780Z,99669.37
2023-05-16T09:28:35.526Z,99663.50
2023-05-16T09:31:22.838Z,99656.17
2023-05-16T09:33:57.921Z,99652.69
2023-05-16T09:36:33.081Z,99652.13
2023-05-16T09:39:08.286Z,99673.17
2023-05-16T09:41:41.792Z,99652.07
2023-05-16T09:44:15.347Z,99656.44
2023-05-16T09:46:48.795Z,99645.39
2023-05-16T09:49:22.578Z,99650.02
2023-05-16T09:51:56.257Z,99642.95
2023-05-16T09:54:36.710Z,99632.88
2023-05-16T09:57:10.613Z,99638.95
2023-05-16T09:59:44.222Z,99631.81
2023-05-16T10:02:18.276Z,99640.84
2023-05-16T10:04:52.098Z,99633.61
2023-05-16T10:07:25.899Z,99619.04
2023-05-16T10:09:59.820Z,99628.09
2023-05-16T10:12:36.531Z,99633.46
2023-05-16T10:15:11.768Z,99641.61
2023-05-16T10:17:47.397Z,99636.88
2023-05-16T10:20:22.033Z,99627.66
2023-05-16T10:22:57.547Z,99617.63
2023-05-16T10:25:34.186Z,99588.42
2023-05-16T10:28:08.312Z,99605.97
2023-05-16T10:30:44.554Z,99615.03
2023-05-16T10:33:19.856Z,99587.42
2023-05-16T10:35:53.812Z,99571.36
2023-05-16T10:38:28.286Z,99598.21
2023-05-16T10:41:01.944Z,99599.71
2023-05-16T10:43:35.554Z,99594.06
2023-05-16T10:46:10.940Z,99583.62
2023-05-16T10:48:45.083Z,99594.92
2023-05-16T10:54:22.235Z,99579.73
2023-05-16T10:56:59.100Z,99558.14
2023-05-16T10:59:33.985Z,99585.39
2023-05-16T11:02:10.674Z,99569.22
2023-05-16T11:04:51.775Z,99564.22
2023-05-16T11:07:26.011Z,99573.68
2023-05-16T11:10:11.052Z,99580.67
2023-05-16T11:12:49.674Z,99580.63
2023-05-16T11:15:29.293Z,99559.62
2023-05-16T11:18:14.325Z,99577.02
2023-05-16T11:20:49.746Z,99567.04
2023-05-16T11:23:27.745Z,99559.15
2023-05-16T11:26:01.914Z,99558.70
2023-05-16T11:28:35.672Z,99544.34
2023-05-16T11:31:10.409Z,99571.50
2023-05-16T11:33:45.201Z,99566.00
2023-05-16T11:36:18.985Z,99566.30
2023-05-16T11:38:52.782Z,99556.59
2023-05-16T11:41:26.240Z,99541.16
2023-05-16T11:43:59.624Z,99549.29
2023-05-16T11:46:35.195Z,99562.75
2023-05-16T11:49:09.670Z,99553.91
2023-05-16T11:51:44.599Z,99541.27
2023-05-16T11:54:20.040Z,99545.47
2023-05-16T11:56:54.203Z,99523.60
2023-05-16T11:59:27.802Z,99561.27
2023-05-16T12:02:02.550Z,99542.22
2023-05-16T12:04:36.250Z,99545.36
2023-05-16T12:07:10.039Z,99540.02
2023-05-16T12:09:43.645Z,99532.84
2023-05-16T12:12:19.925Z,99535.88
2023-05-16T12:14:53.836Z,99559.54
2023-05-16T12:17:27.594Z,99556.25
2023-05-16T12:20:01.837Z,99555.64
2023-05-16T12:22:35.898Z,99564.64
2023-05-16T12:25:24.253Z,99546.89
2023-05-16T12:27:59.369Z,99538.11
2023-05-16T12:30:34.857Z,99537.88
2023-05-16T12:33:11.235Z,99534.64
2023-05-16T12:35:46.798Z,99533.09
2023-05-16T12:38:20.949Z,99535.63
2023-05-16T12:40:57.233Z,99532.21
2023-05-16T12:43:31.053Z,99533.25
2023-05-16T12:46:06.502Z,99528.45
2023-05-16T12:48:42.254Z,99540.81
2023-05-16T12:51:18.300Z,99534.19
2023-05-16T12:54:08.876Z,99532.02
2023-05-16T12:56:29.698Z,99520.66
2023-05-16T12:59:03.454Z,99491.09
2023-05-16T13:01:37.889Z,99511.47
2023-05-16T13:04:13.189Z,99533.05
2023-05-16T13:06:57.248Z,99536.10
2023-05-16T13:09:23.633Z,99517.77
2023-05-16T13:11:57.121Z,99511.14
2023-05-16T13:14:30.607Z,99516.41
2023-05-16T13:17:04.673Z,99494.17
2023-05-16T13:19:38.288Z,99494.94
2023-05-16T13:22:11.686Z,99521.42
2023-05-16T13:24:45.378Z,99490.16
2023-05-16T13:27:19.988Z,99505.88
2023-05-16T13:29:53.400Z,99507.41
2023-05-16T13:32:27.275Z,99509.58
2023-05-16T13:35:00.765Z,99530.00
2023-05-16T13:37:35.386Z,99538.04
2023-05-16T13:40:11.352Z,99520.23
2023-05-16T13:42:44.905Z,99537.88
2023-05-16T13:45:19.289Z,99530.25
2023-05-16T13:47:53.171Z,99518.28
2023-05-16T13:50:33.133Z,99501.92
2023-05-16T13:53:01.905Z,99502.33
2023-05-16T13:55:35.767Z,99533.75
2023-05-16T13:58:09.316Z,99515.45
2023-05-16T14:00:45.996Z,99503.02
2023-05-16T14:03:18.127Z,99492.95
2023-05-16T14:05:52.012Z,99475.45
2023-05-16T14:08:25.542Z,99482.55
2023-05-16T14:11:01.143Z,99492.75
2023-05-16T14:13:34.282Z,99496.27
2023-05-16T14:16:08.631Z,99485.81
2023-05-16T14:18:42.239Z,99486.03
2023-05-16T14:21:18.545Z,99484.49
2023-05-16T14:23:51.849Z,99483.58
2023-05-16T14:26:25.708Z,99489.67
2023-05-16T14:28:59.269Z,99493.84
2023-05-16T14:31:33.037Z,99492.86
2023-05-16T14:34:06.695Z,99489.17
2023-05-16T14:36:40.154Z,99485.97
2023-05-16T14:39:14.617Z,99492.45
2023-05-16T14:41:48.279Z,99498.49
2023-05-16T14:44:23.936Z,99500.20
2023-05-16T14:46:57.431Z,99491.73
2023-05-16T14:49:30.752Z,99502.30
2023-05-16T14:52:04.376Z,99508.69
2023-05-16T14:54:38.033Z,99506.59
2023-05-16T14:57:11.672Z,99511.20
2023-05-16T14:59:45.108Z,99502.30
2023-05-16T15:05:00.536Z,99495.02
2023-05-16T15:07:35.413Z,99490.75
2023-05-16T15:10:11.169Z,99486.58
2023-05-16T15:12:44.523Z,99498.52
2023-05-16T15:15:18.515Z,99489.29
2023-05-16T15:17:52.193Z,99488.44
2023-05-16T15:20:26.747Z,99491.95
2023-05-16T15:23:02.982Z,99488.11
2023-05-16T15:25:36.856Z,99493.62
2023-05-16T15:28:10.542Z,99493.76
2023-05-16T15:30:44.064Z,99497.94
2023-05-16T15:33:17.786Z,99500.22
2023-05-16T15:35:52.113Z,99500.45
2023-05-16T15:38:25.748Z,99496.21
2023-05-16T15:41:13.508Z,99490.08
2023-05-16T15:43:34.546Z,99502.52
2023-05-16T15:46:09.982Z,99502.38
2023-05-16T15:48:44.951Z,99498.77
2023-05-16T15:51:19.482Z,99502.89
2023-05-16T15:53:53.709Z,99488.96
2023-05-16T15:56:27.419Z,99494.61
2023-05-16T15:59:00.975Z,99490.17
2023-05-16T16:01:34.617Z,99487.84
2023-05-16T16:04:08.551Z,99492.34
2023-05-16T16:06:42.019Z,99496.81
2023-05-16T16:09:19.056Z,99501.53
2023-05-16T16:11:54.806Z,99490.26
2023-05-16T16:14:29.259Z,99496.19
2023-05-16T16:17:04.306Z,99486.06
2023-05-16T16:19:37.662Z,99500.87
2023-05-16T16:22:11.200Z,99490.70
2023-05-16T16:24:44.902Z,99509.62
2023-05-16T16:27:18.571Z,99516.79
2023-05-16T16:29:52.306Z,99518.61
2023-05-16T16:32:26.022Z,99518.61
2023-05-16T16:34:59.683Z,99521.27
2023-05-16T16:37:35.106Z,99520.75
2023-05-16T16:40:14.909Z,99536.47
2023-05-16T16:42:48.821Z,99539.55
2023-05-16T16:45:24.289Z,99541.57
2023-05-16T16:47:58.194Z,99538.34
2023-05-16T16:50:32.862Z,99540.44
2023-05-16T16:53:06.945Z,99542.68
2023-05-16T16:55:41.206Z,99533.02
2023-05-16T16:58:14.832Z,99542.00
2023-05-16T17:00:48.414Z,99546.67
2023-05-16T17:03:22.229Z,99539.88
2023-05-16T17:05:57.132Z,99547.22
2023-05-16T17:08:31.092Z,99550.13
2023-05-16T17:11:05.542Z,99549.58
2023-05-16T17:13:41.043Z,99547.08
2023-05-16T17:16:14.877Z,99543.47
2023-05-16T17:18:48.514Z,99540.12
2023-05-16T17:21:22.475Z,99546.55
2023-05-16T17:23:57.416Z,99547.59
2023-05-16T17:26:31.854Z,99555.69
2023-05-16T17:29:06.936Z,99561.13
2023-05-16T17:31:42.318Z,99551.57
2023-05-16T17:34:16.252Z,99549.05
2023-05-16T17:36:49.997Z,99550.94
2023-05-16T17:39:23.556Z,99550.17
2023-05-16T17:41:57.536Z,99545.75
2023-05-16T17:44:31.126Z,99530.89
2023-05-16T17:47:05.001Z,99550.50
2023-05-16T17:49:38.874Z,99561.22
2023-05-16T17:52:12.837Z,99558.61
2023-05-16T17:54:46.402Z,99562.20
2023-05-16T17:57:19.902Z,99574.58
2023-05-16T17:59:53.970Z,99563.14
2023-05-16T18:02:27.644Z,99572.02
2023-05-16T18:05:01.552Z,99568.64
2023-05-16T18:07:36.013Z,99571.38
2023-05-16T18:10:11.514Z,99564.41
2023-05-16T18:12:45.687Z,99578.48
2023-05-16T18:15:19.496Z,99582.97
2023-05-16T18:17:52.996Z,99589.23
2023-05-16T18:20:26.868Z,99590.17
2023-05-16T18:23:00.819Z,99584.88
2023-05-16T18:25:34.412Z,99586.75
2023-05-16T18:28:08.646Z,99600.02
2023-05-16T18:30:41.994Z,99592.16
2023-05-16T18:33:15.640Z,99590.48
2023-05-16T18:35:49.097Z,99591.38
2023-05-16T18:38:32.061Z,99592.27
2023-05-16T18:40:57.556Z,99585.38
2023-05-16T18:43:33.237Z,99589.81
2023-05-16T18:46:06.914Z,99589.88
2023-05-16T18:48:40.495Z,99605.79
2023-05-16T18:51:14.201Z,99602.36
2023-05-16T18:53:47.549Z,99603.33
2023-05-16T18:56:22.722Z,99602.44
2023-05-16T18:58:57.068Z,99601.65
2023-05-16T19:01:31.046Z,99595.53
2023-05-16T19:04:04.806Z,99596.50
2023-05-16T19:06:39.206Z,99595.68
2023-05-16T19:09:12.977Z,99600.11
2023-05-16T19:11:46.567Z,99597.56
2023-05-16T19:14:20.904Z,99602.88
2023-05-16T19:16:54.948Z,99602.06
2023-05-16T19:19:29.879Z,99599.45
2023-05-16T19:22:03.706Z,99593.41
2023-05-16T19:24:37.401Z,99595.22
2023-05-16T19:27:11.239Z,99596.18
2023-05-16T19:29:45.174Z,99595.38
2023-05-16T19:32:19.836Z,99588.38
2023-05-16T19:34:53.787Z,99594.59
2023-05-16T19:37:27.848Z,99585.83
2023-05-16T19:40:01.544Z,99588.54
2023-05-16T19:42:35.855Z,99591.23
2023-05-16T19:45:12.235Z,99585.16
2023-05-16T19:47:46.164Z,99589.61
2023-05-16T19:50:20.249Z,99593.20
2023-05-16T19:52:55.604Z,99592.34
2023-05-16T19:55:31.364Z,99589.73
2023-05-16T19:58:04.822Z,99596.80
2023-05-16T20:00:38.330Z,99599.47
2023-05-16T20:03:11.965Z,99610.94
2023-05-16T20:05:46.348Z,99607.44
2023-05-16T20:08:20.148Z,99608.39
2023-05-16T20:10:54.573Z,99604.91
2023-05-16T20:13:30.793Z,99611.11
2023-05-16T20:16:07.399Z,99609.36
2023-05-16T20:18:42.731Z,99598.83
2023-05-16T20:21:19.624Z,99612.91
2023-05-16T20:23:53.488Z,99600.60
2023-05-16T20:26:28.106Z,99618.19
2023-05-16T20:29:03.883Z,99612.97
2023-05-16T20:31:37.526Z,99613.85
2023-05-16T20:34:14.199Z,99604.16
2023-05-16T20:36:47.815Z,99610.35
2023-05-16T20:39:23.230Z,99614.80
2023-05-16T20:41:57.924Z,99615.73
2023-05-16T20:44:33.227Z,99611.41
2023-05-16T20:47:07.753Z,99615.84
2023-05-16T20:49:41.447Z,99612.34
2023-05-16T20:52:15.011Z,99614.14
2023-05-16T20:54:50.323Z,99614.16
2023-05-16T20:57:23.910Z,99616.83
2023-05-16T20:59:58.005Z,99616.88
2023-05-16T21:02:31.723Z,99613.37
2023-05-16T21:05:23.378Z,99610.78
2023-05-16T21:07:42.610Z,99609.06
2023-05-16T21:10:16.201Z,99617.02
2023-05-16T21:12:50.288Z,99608.27
2023-05-16T21:15:24.253Z,99615.31
2023-05-16T21:17:57.890Z,99611.81
2023-05-16T21:20:31.780Z,99603.90
2023-05-16T21:23:05.507Z,99607.45
2023-05-16T21:25:41.235Z,99602.19
2023-05-16T21:28:14.718Z,99602.25
2023-05-16T21:30:48.564Z,99590.83
2023-05-16T21:33:22.275Z,99593.48
2023-05-16T21:35:56.439Z,99592.62
2023-05-16T21:38:30.441Z,99583.85
2023-05-16T21:41:04.393Z,99592.70
2023-05-16T21:43:38.168Z,99584.80
2023-05-16T21:46:11.846Z,99578.74
2023-05-16T21:48:48.482Z,99581.39
2023-05-16T21:54:08.305Z,99584.02
2023-05-16T21:56:41.891Z,99579.77
2023-05-16T21:59:15.570Z,99585.06
2023-05-16T22:01:49.177Z,99578.97
2023-05-16T22:04:23.908Z,99584.26
2023-05-16T22:06:57.619Z,99579.92
2023-05-16T22:09:31.468Z,99580.83
2023-05-16T22:12:05.573Z,99580.83
2023-05-16T22:14:39.607Z,99587.88
2023-05-16T22:17:13.548Z,99580.83
2023-05-16T22:19:47.377Z,99579.08
2023-05-16T22:22:21.438Z,99575.52
2023-05-16T22:24:55.573Z,99579.05
2023-05-16T22:27:29.162Z,99575.55
2023-05-16T22:30:02.487Z,99577.34
2023-05-16T22:32:36.839Z,99573.87
2023-05-16T22:35:12.044Z,99574.78
2023-05-16T22:37:46.087Z,99576.59
2023-05-16T22:40:19.907Z,99577.49
2023-05-16T22:42:53.870Z,99579.28
2023-05-16T22:45:28.090Z,99577.53
2023-05-16T22:48:04.478Z,99583.72
2023-05-16T22:50:38.185Z,99578.48
2023-05-16T22:53:12.255Z,99581.16
2023-05-16T22:55:46.354Z,99577.62
2023-05-16T22:58:20.511Z,99581.16
2023-05-16T23:00:53.948Z,99577.62
2023-05-16T23:03:28.076Z,99588.19
2023-05-16T23:06:01.946Z,99589.96
2023-05-16T23:08:35.848Z,99590.88
2023-05-16T23:11:09.661Z,99583.85
2023-05-16T23:13:43.436Z,99588.24
2023-05-16T23:16:16.953Z,99583.02
2023-05-16T23:18:50.658Z,99579.52
2023-05-16T23:21:24.372Z,99587.42
2023-05-16T23:23:58.118Z,99586.57
2023-05-16T23:26:31.636Z,99585.73
2023-05-16T23:29:06.195Z,99585.75
2023-05-16T23:31:39.807Z,99581.37
2023-05-16T23:34:13.470Z,99584.00
2023-05-16T23:36:46.979Z,99585.80
2023-05-16T23:39:21.548Z,99584.05
2023-05-16T23:41:58.795Z,99583.17
2023-05-16T23:44:33.699Z,99581.36
2023-05-16T23:47:07.610Z,99586.65
2023-05-16T23:49:41.658Z,99588.44
2023-05-16T23:52:15.391Z,99591.09
2023-05-16T23:54:49.271Z,99594.63
2023-05-16T23:57:22.843Z,99592.91
2023-05-16T23:59:56.343Z,99595.58
